Time;durP1;ratioP1;P1;durP2;ratioP2;P2;SDS_P1;SDS_P2;PMS_P1;PMS_P2;Temp;Humidity;BMP_temperature;BMP_pressure;BME280_temperature;BME280_humidity;BME280_pressure;Samples;Min_cycle;Max_cycle;Signal;HPM_P1;HPM_P2
2023/07/12 00:00:44;;;;;;;2.07;1.83;;;19.80;99.90;;;;;;5065332;28;21024;-71
2023/07/12 00:03:11;;;;;;;2.33;2.13;;;19.90;99.90;;;;;;5061346;28;20640;-71
2023/07/12 00:05:38;;;;;;;1.83;1.70;;;19.70;99.90;;;;;;5067103;28;21227;-70
2023/07/12 00:08:06;;;;;;;3.83;1.90;;;19.80;99.90;;;;;;5061241;28;20649;-70
2023/07/12 00:10:36;;;;;;;2.20;1.40;;;19.80;99.90;;;;;;5064555;28;20654;-71
2023/07/12 00:13:03;;;;;;;1.73;1.63;;;19.90;99.90;;;;;;5064451;28;20949;-71
2023/07/12 00:15:32;;;;;;;1.60;1.40;;;19.90;99.90;;;;;;5065616;28;20677;-71
2023/07/12 00:17:59;;;;;;;1.57;1.40;;;19.90;99.90;;;;;;5066382;28;20621;-70
2023/07/12 00:20:32;;;;;;;1.50;1.40;;;20.00;99.90;;;;;;5070874;28;20656;-70
2023/07/12 00:22:59;;;;;;;1.80;1.70;;;19.90;99.90;;;;;;5063185;28;20625;-70
2023/07/12 00:25:29;;;;;;;2.67;1.53;;;19.80;99.90;;;;;;5065859;28;20649;-72
2023/07/12 00:27:57;;;;;;;1.30;1.20;;;19.80;99.90;;;;;;5063396;28;20946;-71
2023/07/12 00:30:27;;;;;;;1.67;1.57;;;19.80;99.90;;;;;;5068092;28;20664;-71
2023/07/12 00:32:57;;;;;;;1.20;1.00;;;19.90;99.90;;;;;;5064142;28;20672;-71
2023/07/12 00:35:26;;;;;;;1.30;1.20;;;19.90;99.90;;;;;;5062985;28;20708;-71
2023/07/12 00:37:55;;;;;;;1.10;1.00;;;20.00;99.90;;;;;;5060838;28;20622;-71
2023/07/12 00:40:52;;;;;;;2.10;1.27;;;20.00;99.90;;;;;;5068394;28;20626;-71
2023/07/12 00:43:26;;;;;;;3.37;1.40;;;19.90;99.90;;;;;;5069474;28;20632;-71
2023/07/12 00:45:55;;;;;;;2.80;1.10;;;20.00;99.90;;;;;;5071027;28;20644;-71
2023/07/12 00:48:22;;;;;;;1.80;1.40;;;19.90;99.90;;;;;;5065314;28;20634;-71
2023/07/12 00:50:49;;;;;;;1.50;1.37;;;20.00;99.90;;;;;;5070079;28;20645;-71
2023/07/12 00:53:18;;;;;;;1.27;1.17;;;20.00;99.90;;;;;;5062246;28;20625;-71
2023/07/12 00:56:04;;;;;;;1.50;1.40;;;20.00;99.90;;;;;;5061306;28;20653;-71
2023/07/12 00:58:36;;;;;;;1.37;1.27;;;20.00;99.90;;;;;;5062445;28;20629;-71
2023/07/12 01:01:04;;;;;;;1.50;1.33;;;19.90;99.90;;;;;;5068035;28;20981;-71
2023/07/12 01:03:36;;;;;;;1.63;1.40;;;19.90;99.90;;;;;;5064370;28;20625;-71
2023/07/12 01:06:04;;;;;;;1.57;1.47;;;19.90;99.90;;;;;;5061458;28;20645;-71
2023/07/12 01:08:31;;;;;;;1.60;1.50;;;19.90;99.90;;;;;;5061745;28;20648;-71
2023/07/12 01:11:00;;;;;;;1.50;1.40;;;20.00;99.90;;;;;;5068425;28;20637;-71
2023/07/12 01:13:30;;;;;;;1.77;1.67;;;20.00;99.90;;;;;;5069410;28;20624;-71
2023/07/12 01:16:02;;;;;;;1.47;1.30;;;19.90;99.90;;;;;;5065440;28;20708;-71
2023/07/12 01:18:30;;;;;;;2.40;1.50;;;20.00;99.90;;;;;;5067359;28;20636;-71
2023/07/12 01:21:12;;;;;;;1.30;1.20;;;19.90;99.90;;;;;;5069739;28;20646;-71
2023/07/12 01:23:41;;;;;;;1.40;1.30;;;19.90;99.90;;;;;;5061121;28;20626;-71
2023/07/12 01:26:17;;;;;;;0.93;0.90;;;20.00;99.90;;;;;;5067575;28;20668;-71
2023/07/12 01:28:47;;;;;;;2.73;1.90;;;20.00;99.90;;;;;;5068808;28;20621;-71
2023/07/12 01:31:14;;;;;;;2.73;1.53;;;19.90;99.90;;;;;;5062456;28;20642;-71
2023/07/12 01:33:41;;;;;;;1.50;1.30;;;19.80;99.90;;;;;;5066534;28;20622;-71
2023/07/12 01:36:11;;;;;;;1.27;1.17;;;19.60;99.90;;;;;;5069262;28;20651;-71
2023/07/12 01:38:39;;;;;;;1.60;1.50;;;19.50;99.90;;;;;;5070026;28;20736;-71
2023/07/12 01:41:06;;;;;;;1.83;1.73;;;19.40;99.90;;;;;;5067390;28;20641;-71
2023/07/12 01:43:33;;;;;;;1.40;1.30;;;19.50;99.90;;;;;;5070122;28;20621;-71
2023/07/12 01:46:02;;;;;;;2.20;2.00;;;19.70;99.90;;;;;;5067750;28;20646;-71
2023/07/12 01:48:30;;;;;;;2.30;1.57;;;19.80;99.90;;;;;;5069167;28;20636;-71
2023/07/12 01:50:57;;;;;;;1.50;1.37;;;19.90;99.90;;;;;;5067074;28;20675;-71
2023/07/12 01:53:27;;;;;;;1.47;1.40;;;19.90;99.90;;;;;;5069138;28;20661;-71
2023/07/12 01:55:55;;;;;;;1.50;1.40;;;20.00;99.90;;;;;;5067096;28;20649;-71
2023/07/12 01:58:23;;;;;;;1.60;1.20;;;20.00;99.90;;;;;;5060912;28;20641;-71
2023/07/12 02:00:51;;;;;;;1.70;1.23;;;19.80;99.90;;;;;;5061414;28;20642;-71
2023/07/12 02:03:20;;;;;;;1.90;1.63;;;19.80;99.90;;;;;;5061385;28;21287;-71
2023/07/12 02:05:47;;;;;;;1.63;1.50;;;19.80;99.90;;;;;;5068195;28;21009;-72
2023/07/12 02:08:15;;;;;;;1.37;1.27;;;19.80;99.90;;;;;;5068709;28;20647;-72
2023/07/12 02:10:43;;;;;;;1.40;1.30;;;19.70;99.90;;;;;;5061384;28;20748;-71
2023/07/12 02:13:11;;;;;;;1.90;1.80;;;19.80;99.90;;;;;;5068606;28;20685;-71
2023/07/12 02:15:38;;;;;;;1.57;1.47;;;19.70;99.90;;;;;;5068673;28;20642;-71
2023/07/12 02:18:07;;;;;;;2.87;2.00;;;19.60;99.90;;;;;;5060372;28;21194;-71
2023/07/12 02:20:34;;;;;;;1.70;1.60;;;19.40;99.90;;;;;;5062556;28;20649;-71
2023/07/12 02:23:02;;;;;;;1.80;1.67;;;19.40;99.90;;;;;;5068595;28;21550;-71
2023/07/12 02:25:29;;;;;;;2.40;1.77;;;19.40;99.90;;;;;;5061367;28;20711;-71
2023/07/12 02:27:58;;;;;;;1.97;1.87;;;19.40;99.90;;;;;;5065828;28;20637;-71
2023/07/12 02:30:29;;;;;;;2.50;1.70;;;19.40;99.90;;;;;;5065868;28;20654;-71
2023/07/12 02:32:58;;;;;;;3.13;1.87;;;19.40;99.90;;;;;;5058825;28;20642;-71
2023/07/12 02:35:29;;;;;;;2.23;2.03;;;19.50;99.90;;;;;;5064688;28;20646;-71
2023/07/12 02:37:57;;;;;;;1.50;1.40;;;19.60;99.90;;;;;;5065706;28;20636;-71
2023/07/12 02:40:25;;;;;;;1.60;1.50;;;19.60;99.90;;;;;;5068164;28;20629;-72
2023/07/12 02:42:53;;;;;;;2.13;1.93;;;19.70;99.90;;;;;;5067809;28;21228;-72
2023/07/12 02:45:21;;;;;;;1.63;1.53;;;19.60;99.90;;;;;;5063982;28;21025;-72
2023/07/12 02:47:49;;;;;;;1.73;1.63;;;19.60;99.90;;;;;;5058209;28;21179;-71
2023/07/12 02:50:16;;;;;;;1.73;1.63;;;19.60;99.90;;;;;;5064263;28;21275;-72
2023/07/12 02:52:44;;;;;;;1.83;1.73;;;19.60;99.90;;;;;;5060307;28;20677;-71
2023/07/12 02:55:12;;;;;;;2.33;2.13;;;19.60;99.90;;;;;;5068580;28;20673;-72
2023/07/12 02:57:41;;;;;;;2.17;1.70;;;19.60;99.90;;;;;;5054208;28;21566;-72
2023/07/12 03:00:11;;;;;;;1.63;1.53;;;19.60;99.90;;;;;;5066269;28;20625;-72
2023/07/12 03:02:41;;;;;;;2.10;1.90;;;19.60;99.90;;;;;;5063716;28;20684;-72
2023/07/12 03:05:08;;;;;;;1.80;1.70;;;19.60;99.90;;;;;;5065554;28;20991;-72
2023/07/12 03:07:38;;;;;;;2.60;2.40;;;19.60;99.90;;;;;;5059572;28;21207;-71
2023/07/12 03:10:05;;;;;;;2.00;1.90;;;19.60;99.90;;;;;;5061514;28;20621;-71
2023/07/12 03:12:33;;;;;;;5.77;2.30;;;19.60;99.90;;;;;;5064024;28;20646;-72
2023/07/12 03:15:00;;;;;;;2.20;2.07;;;19.70;99.90;;;;;;5064397;28;21301;-72
2023/07/12 03:17:31;;;;;;;2.07;1.80;;;19.60;99.90;;;;;;5068074;28;20656;-71
2023/07/12 03:20:00;;;;;;;1.77;1.63;;;19.60;99.90;;;;;;5067017;28;20996;-71
2023/07/12 03:22:27;;;;;;;2.20;2.00;;;19.40;99.90;;;;;;5061381;28;20660;-72
2023/07/12 03:24:54;;;;;;;2.93;2.73;;;19.40;99.90;;;;;;5064070;28;20997;-72
2023/07/12 03:27:21;;;;;;;2.00;1.73;;;19.40;99.90;;;;;;5060327;28;21229;-72
2023/07/12 03:29:48;;;;;;;2.00;1.80;;;19.50;99.90;;;;;;5066180;28;20641;-72
2023/07/12 03:32:15;;;;;;;1.90;1.80;;;19.50;99.90;;;;;;5064679;28;20665;-72
2023/07/12 03:34:41;;;;;;;2.00;1.70;;;19.50;99.90;;;;;;5060088;28;20625;-72
2023/07/12 03:37:11;;;;;;;2.60;2.23;;;19.60;99.90;;;;;;5060589;28;21250;-71
2023/07/12 03:39:38;;;;;;;2.97;2.10;;;19.50;99.90;;;;;;5061045;28;20721;-71
2023/07/12 03:42:06;;;;;;;2.47;1.97;;;19.40;99.90;;;;;;5065009;28;21596;-71
2023/07/12 03:44:32;;;;;;;3.30;1.73;;;19.40;99.90;;;;;;5061725;28;21250;-71
2023/07/12 03:46:59;;;;;;;2.00;1.90;;;19.30;99.90;;;;;;5067431;28;20646;-71
2023/07/12 03:49:26;;;;;;;2.30;2.10;;;19.20;99.90;;;;;;5067305;28;20680;-72
2023/07/12 03:51:53;;;;;;;3.70;2.00;;;19.10;99.90;;;;;;5066194;28;20654;-71
2023/07/12 03:54:21;;;;;;;1.93;1.83;;;19.20;99.90;;;;;;5065895;28;20644;-71
2023/07/12 03:56:48;;;;;;;1.80;1.70;;;19.10;99.90;;;;;;5060862;28;20649;-72
2023/07/12 03:59:15;;;;;;;1.70;1.60;;;19.20;99.90;;;;;;5066388;28;20722;-72
2023/07/12 04:01:42;;;;;;;3.03;2.80;;;19.10;99.90;;;;;;5059067;28;20669;-72
2023/07/12 04:04:08;;;;;;;2.37;2.23;;;19.20;99.90;;;;;;5062957;28;21182;-71
2023/07/12 04:06:36;;;;;;;2.93;2.43;;;19.20;99.90;;;;;;5065259;28;21390;-71
2023/07/12 04:09:03;;;;;;;4.30;1.90;;;19.10;99.90;;;;;;5064677;28;20986;-71
2023/07/12 04:11:33;;;;;;;2.50;2.13;;;19.20;99.90;;;;;;5066294;28;20653;-72
2023/07/12 04:14:01;;;;;;;3.13;2.37;;;19.20;99.90;;;;;;5058057;28;20657;-72
2023/07/12 04:16:29;;;;;;;2.27;2.07;;;19.10;99.90;;;;;;5061539;28;20745;-72
2023/07/12 04:18:56;;;;;;;1.70;1.60;;;19.20;99.90;;;;;;5065532;28;21178;-72
2023/07/12 04:21:23;;;;;;;3.83;2.40;;;19.20;99.90;;;;;;5061930;28;20642;-72
2023/07/12 04:23:50;;;;;;;1.90;1.80;;;19.10;99.90;;;;;;5063814;28;21182;-72
2023/07/12 04:26:20;;;;;;;3.77;1.93;;;19.20;99.90;;;;;;5057088;28;20828;-72
2023/07/12 04:28:51;;;;;;;2.30;1.90;;;19.20;99.90;;;;;;5063250;28;20630;-72
2023/07/12 04:31:19;;;;;;;2.90;2.23;;;19.20;99.90;;;;;;5065076;28;20761;-71
2023/07/12 04:33:47;;;;;;;2.90;2.20;;;19.20;99.90;;;;;;5062876;28;20715;-72
2023/07/12 04:36:16;;;;;;;2.40;2.20;;;19.40;99.90;;;;;;5062394;28;20649;-70
2023/07/12 04:38:42;;;;;;;2.83;2.20;;;19.50;99.90;;;;;;5066439;28;20969;-70
2023/07/12 04:41:09;;;;;;;2.27;2.07;;;19.40;99.90;;;;;;5061252;28;20650;-70
2023/07/12 04:43:36;;;;;;;2.00;1.80;;;19.50;99.90;;;;;;5059779;28;20606;-70
2023/07/12 04:46:05;;;;;;;3.00;2.60;;;19.70;99.90;;;;;;5065145;28;20649;-70
2023/07/12 04:48:33;;;;;;;2.10;2.00;;;19.70;99.90;;;;;;5062560;28;20656;-70
2023/07/12 04:51:00;;;;;;;2.73;1.73;;;19.80;99.90;;;;;;5055691;28;20753;-71
2023/07/12 04:53:27;;;;;;;2.37;2.13;;;19.80;99.90;;;;;;5063072;28;20649;-70
2023/07/12 04:55:55;;;;;;;3.43;2.13;;;19.80;99.90;;;;;;5062654;28;20645;-70
2023/07/12 04:58:22;;;;;;;5.63;1.70;;;19.70;99.90;;;;;;5063006;28;20728;-70
2023/07/12 05:00:48;;;;;;;3.17;2.03;;;19.80;99.90;;;;;;5061176;28;20998;-70
2023/07/12 05:03:17;;;;;;;2.70;2.50;;;19.80;99.90;;;;;;5065870;28;20716;-70
2023/07/12 05:05:43;;;;;;;2.20;2.00;;;19.90;99.90;;;;;;5068577;28;20653;-70
2023/07/12 05:08:10;;;;;;;2.87;2.27;;;19.90;99.90;;;;;;5060105;28;20658;-71
2023/07/12 05:10:37;;;;;;;2.57;2.37;;;19.90;99.90;;;;;;5067353;28;20654;-71
2023/07/12 05:13:04;;;;;;;2.40;2.10;;;19.90;99.90;;;;;;5065359;28;20656;-71
2023/07/12 05:15:31;;;;;;;5.47;2.90;;;20.00;99.90;;;;;;5069133;28;20659;-71
2023/07/12 05:17:58;;;;;;;3.13;2.20;;;20.10;99.90;;;;;;5068576;28;20636;-71
2023/07/12 05:20:27;;;;;;;1.97;1.87;;;20.20;99.90;;;;;;5064425;28;20648;-70
2023/07/12 05:22:54;;;;;;;2.23;2.03;;;20.30;99.90;;;;;;5069045;28;20651;-71
2023/07/12 05:25:20;;;;;;;2.97;2.77;;;20.20;99.90;;;;;;5064526;28;20630;-70
2023/07/12 05:27:47;;;;;;;3.33;2.37;;;20.30;99.90;;;;;;5065648;28;20641;-71
2023/07/12 05:30:14;;;;;;;2.53;2.30;;;20.30;99.90;;;;;;5066498;28;20629;-71
2023/07/12 05:32:41;;;;;;;4.27;2.70;;;20.30;99.90;;;;;;5068230;28;20667;-71
2023/07/12 05:35:09;;;;;;;2.53;2.33;;;20.40;99.90;;;;;;5066282;28;20649;-71
2023/07/12 05:37:37;;;;;;;3.53;2.27;;;20.40;99.90;;;;;;5063230;28;21117;-70
2023/07/12 05:40:05;;;;;;;3.73;3.43;;;20.50;99.90;;;;;;5061928;28;20653;-69
2023/07/12 05:42:32;;;;;;;3.50;2.30;;;20.50;99.90;;;;;;5064272;28;20633;-69
2023/07/12 05:44:59;;;;;;;3.47;2.87;;;20.60;99.90;;;;;;5066238;28;21244;-69
2023/07/12 05:47:25;;;;;;;5.70;3.00;;;20.60;99.90;;;;;;5069403;28;20983;-69
2023/07/12 05:49:52;;;;;;;4.17;2.73;;;20.60;99.90;;;;;;5060765;28;20627;-70
2023/07/12 05:52:19;;;;;;;3.07;2.80;;;20.60;99.90;;;;;;5066117;28;20653;-69
2023/07/12 05:54:47;;;;;;;2.50;2.27;;;20.70;99.90;;;;;;5068261;28;20713;-70
2023/07/12 05:57:14;;;;;;;3.17;2.90;;;20.80;99.90;;;;;;5069008;28;20646;-70
2023/07/12 05:59:41;;;;;;;6.00;2.67;;;20.90;99.90;;;;;;5064529;28;20708;-70
2023/07/12 06:02:12;;;;;;;4.03;3.63;;;20.90;99.90;;;;;;5067923;28;20653;-70
2023/07/12 06:04:39;;;;;;;3.03;2.80;;;21.00;99.90;;;;;;5067440;28;20622;-70
2023/07/12 06:07:06;;;;;;;7.93;3.20;;;21.00;99.90;;;;;;5061864;28;20646;-69
2023/07/12 06:09:33;;;;;;;3.20;2.90;;;21.00;99.90;;;;;;5061136;28;21059;-70
2023/07/12 06:12:01;;;;;;;3.97;3.57;;;21.10;99.90;;;;;;5067487;28;20767;-71
2023/07/12 06:14:28;;;;;;;3.70;3.40;;;21.10;99.90;;;;;;5066767;28;20655;-71
2023/07/12 06:16:54;;;;;;;3.20;3.00;;;21.20;99.90;;;;;;5069157;28;21021;-71
2023/07/12 06:19:21;;;;;;;3.63;2.87;;;21.20;99.90;;;;;;5061916;28;21208;-71
2023/07/12 06:21:48;;;;;;;4.53;3.17;;;21.20;99.90;;;;;;5056214;28;20653;-71
2023/07/12 06:24:15;;;;;;;2.93;2.70;;;21.20;99.90;;;;;;5068323;28;20614;-71
2023/07/12 06:26:41;;;;;;;3.60;3.30;;;21.30;99.90;;;;;;5068016;28;20661;-71
2023/07/12 06:29:10;;;;;;;3.17;2.97;;;21.30;99.90;;;;;;5068258;28;20622;-71
2023/07/12 06:31:36;;;;;;;3.70;3.00;;;21.40;99.90;;;;;;5060048;28;21450;-71
2023/07/12 06:34:04;;;;;;;4.20;3.60;;;21.50;99.90;;;;;;5068409;28;20649;-71
2023/07/12 06:36:31;;;;;;;3.37;3.10;;;21.60;99.90;;;;;;5059918;28;20642;-71
2023/07/12 06:38:57;;;;;;;4.00;3.60;;;21.80;99.90;;;;;;5058165;28;20618;-71
2023/07/12 06:41:25;;;;;;;3.03;2.83;;;22.00;99.90;;;;;;5064419;28;20652;-71
2023/07/12 06:43:51;;;;;;;5.13;3.20;;;22.10;99.90;;;;;;5060887;28;20630;-71
2023/07/12 06:46:20;;;;;;;3.67;2.97;;;22.20;99.90;;;;;;5066503;28;20726;-71
2023/07/12 06:48:47;;;;;;;3.27;3.00;;;22.30;99.90;;;;;;5067266;28;20631;-71
2023/07/12 06:51:13;;;;;;;3.70;3.40;;;22.30;99.90;;;;;;5068131;28;20654;-70
2023/07/12 06:53:40;;;;;;;3.47;3.20;;;22.40;99.90;;;;;;5067614;28;20658;-70
2023/07/12 06:56:07;;;;;;;3.70;3.40;;;22.50;99.90;;;;;;5067368;28;20655;-70
2023/07/12 06:58:34;;;;;;;4.57;3.43;;;22.60;99.90;;;;;;5066277;28;21288;-71
2023/07/12 07:01:01;;;;;;;3.37;2.93;;;22.60;99.90;;;;;;5067434;28;21299;-71
2023/07/12 07:03:29;;;;;;;3.30;3.00;;;22.70;99.90;;;;;;5065147;28;20636;-71
2023/07/12 07:05:56;;;;;;;3.30;3.00;;;22.80;99.90;;;;;;5067239;28;20648;-71
2023/07/12 07:08:23;;;;;;;4.03;3.40;;;22.60;99.90;;;;;;5062589;28;20649;-71
2023/07/12 07:10:51;;;;;;;2.93;2.73;;;22.70;99.90;;;;;;5063506;28;20661;-71
2023/07/12 07:13:18;;;;;;;3.73;3.33;;;22.70;99.90;;;;;;5061871;28;20692;-71
2023/07/12 07:15:45;;;;;;;2.90;2.70;;;22.60;99.90;;;;;;5057984;28;20640;-71
2023/07/12 07:18:12;;;;;;;2.97;2.77;;;22.50;99.90;;;;;;5060608;28;20655;-71
2023/07/12 07:20:42;;;;;;;4.00;3.00;;;22.50;99.90;;;;;;5062298;28;20694;-71
2023/07/12 07:23:10;;;;;;;7.43;3.67;;;22.60;99.90;;;;;;5057491;28;20636;-71
2023/07/12 07:25:36;;;;;;;3.37;2.80;;;22.60;99.90;;;;;;5061491;28;20653;-71
2023/07/12 07:28:04;;;;;;;3.60;3.30;;;22.60;99.90;;;;;;5065959;28;20629;-71
2023/07/12 07:30:31;;;;;;;3.47;3.07;;;22.70;99.90;;;;;;5064823;28;20659;-71
2023/07/12 07:32:58;;;;;;;3.17;2.97;;;22.80;99.90;;;;;;5064039;28;20637;-70
2023/07/12 07:35:26;;;;;;;5.23;2.77;;;22.80;99.90;;;;;;5063620;28;20651;-70
2023/07/12 07:37:54;;;;;;;3.53;3.23;;;22.90;99.90;;;;;;5062402;28;20922;-71
2023/07/12 07:40:21;;;;;;;4.07;3.77;;;23.00;99.90;;;;;;5061925;28;20627;-71
2023/07/12 07:42:48;;;;;;;2.67;2.47;;;23.00;99.90;;;;;;5058857;28;20628;-71
2023/07/12 07:45:15;;;;;;;3.13;2.93;;;23.20;99.90;;;;;;5066668;28;20717;-71
2023/07/12 07:47:42;;;;;;;2.93;2.73;;;23.30;99.90;;;;;;5060644;28;20646;-71
2023/07/12 07:50:09;;;;;;;4.37;2.80;;;23.40;99.90;;;;;;5063022;28;20629;-71
2023/07/12 07:52:36;;;;;;;3.57;3.27;;;23.40;99.90;;;;;;5063701;28;20635;-71
2023/07/12 07:55:05;;;;;;;4.27;3.87;;;23.60;99.90;;;;;;5065857;28;20685;-71
2023/07/12 07:57:32;;;;;;;3.07;2.77;;;23.50;99.90;;;;;;5065756;28;20651;-71
2023/07/12 08:00:03;;;;;;;5.13;3.20;;;23.50;99.90;;;;;;5059490;28;20632;-71
2023/07/12 08:02:30;;;;;;;2.97;2.67;;;23.70;99.90;;;;;;5065887;28;20721;-71
2023/07/12 08:04:58;;;;;;;3.43;3.13;;;23.90;99.90;;;;;;5064342;28;21455;-71
2023/07/12 08:07:24;;;;;;;5.90;3.60;;;24.00;99.90;;;;;;5067224;28;20657;-71
2023/07/12 08:09:51;;;;;;;3.63;3.30;;;24.20;99.90;;;;;;5060985;28;20638;-71
2023/07/12 08:12:20;;;;;;;4.00;3.37;;;24.10;99.90;;;;;;5057328;28;20663;-71
2023/07/12 08:14:46;;;;;;;2.53;2.33;;;24.20;99.90;;;;;;5064178;28;21018;-71
2023/07/12 08:17:13;;;;;;;3.83;3.07;;;24.30;99.40;;;;;;5062033;28;20647;-71
2023/07/12 08:19:40;;;;;;;3.20;2.80;;;24.30;99.90;;;;;;5058762;28;20639;-71
2023/07/12 08:22:07;;;;;;;4.37;2.83;;;24.30;99.90;;;;;;5060673;28;20648;-71
2023/07/12 08:24:34;;;;;;;2.97;2.73;;;24.50;99.90;;;;;;5061007;28;20653;-72
2023/07/12 08:27:00;;;;;;;3.30;3.00;;;24.50;99.40;;;;;;5063829;28;20644;-71
2023/07/12 08:29:29;;;;;;;3.30;2.73;;;24.50;99.20;;;;;;5068628;28;21504;-71
2023/07/12 08:31:55;;;;;;;3.27;2.87;;;24.80;98.40;;;;;;5063800;28;20659;-72
2023/07/12 08:34:22;;;;;;;2.70;2.50;;;24.80;97.90;;;;;;5060859;28;20743;-72
2023/07/12 08:36:49;;;;;;;3.20;3.00;;;24.90;97.30;;;;;;5057157;28;21101;-71
2023/07/12 08:39:16;;;;;;;2.87;2.67;;;24.90;97.20;;;;;;5068877;28;20632;-71
2023/07/12 08:41:42;;;;;;;2.80;2.60;;;25.00;97.30;;;;;;5068341;28;20651;-71
2023/07/12 08:44:14;;;;;;;2.90;2.70;;;25.10;97.90;;;;;;5067518;28;20621;-71
2023/07/12 08:46:47;;;;;;;2.87;2.67;;;25.20;97.50;;;;;;5061771;28;20658;-71
2023/07/12 08:49:17;;;;;;;4.40;2.87;;;25.30;96.70;;;;;;5067707;28;20653;-72
2023/07/12 08:51:45;;;;;;;2.50;2.30;;;25.60;96.30;;;;;;5068575;28;20662;-72
2023/07/12 08:54:22;;;;;;;2.73;2.53;;;25.70;94.40;;;;;;5069848;28;20656;-72
2023/07/12 08:56:50;;;;;;;2.80;2.50;;;25.80;95.20;;;;;;5062411;28;20744;-72
2023/07/12 08:59:18;;;;;;;2.10;2.00;;;25.80;93.90;;;;;;5063692;28;21229;-72
2023/07/12 09:01:51;;;;;;;2.50;2.30;;;25.80;94.20;;;;;;5054014;28;20652;-71
2023/07/12 09:04:24;;;;;;;1.93;1.83;;;25.90;93.90;;;;;;5066074;28;20989;-71
2023/07/12 09:06:53;;;;;;;2.23;2.03;;;25.80;92.60;;;;;;5058264;28;20653;-71
2023/07/12 09:09:20;;;;;;;3.00;2.17;;;26.00;92.30;;;;;;5058870;28;20772;-71
2023/07/12 09:11:47;;;;;;;1.97;1.77;;;26.00;91.90;;;;;;5059552;28;21007;-71
2023/07/12 09:14:18;;;;;;;3.77;2.67;;;26.10;91.40;;;;;;5060503;28;20667;-71
2023/07/12 09:16:49;;;;;;;2.53;2.20;;;26.10;91.10;;;;;;5063319;28;20666;-71
2023/07/12 09:19:19;;;;;;;2.10;2.00;;;26.30;91.70;;;;;;5059186;28;20643;-71
2023/07/12 09:21:51;;;;;;;2.93;2.47;;;26.60;91.30;;;;;;5055318;28;21213;-71
2023/07/12 09:24:22;;;;;;;2.53;2.37;;;26.90;90.70;;;;;;5058572;28;20629;-71
2023/07/12 09:26:50;;;;;;;2.37;2.17;;;26.90;86.20;;;;;;5056063;28;20673;-71
2023/07/12 09:29:20;;;;;;;2.17;2.00;;;26.70;89.00;;;;;;5059909;28;20642;-71
2023/07/12 09:31:51;;;;;;;2.57;2.37;;;26.80;88.70;;;;;;5058514;28;20637;-71
2023/07/12 09:34:22;;;;;;;1.90;1.80;;;26.80;87.00;;;;;;5062089;28;20734;-71
2023/07/12 09:36:56;;;;;;;2.30;2.20;;;26.90;86.20;;;;;;5069591;28;21187;-71
2023/07/12 09:39:25;;;;;;;2.10;2.00;;;26.90;86.70;;;;;;5060784;28;20627;-71
2023/07/12 09:41:56;;;;;;;2.20;1.80;;;26.90;84.90;;;;;;5068268;28;20667;-71
2023/07/12 09:44:23;;;;;;;1.73;1.63;;;26.90;86.40;;;;;;5069302;28;20627;-71
2023/07/12 09:46:54;;;;;;;2.33;2.13;;;27.20;85.00;;;;;;5069307;28;20752;-71
2023/07/12 09:49:24;;;;;;;2.20;2.00;;;27.30;83.30;;;;;;5069483;28;20624;-71
2023/07/12 09:52:01;;;;;;;3.73;1.90;;;27.40;84.50;;;;;;5069443;28;20707;-71
2023/07/12 09:54:36;;;;;;;2.00;1.80;;;27.30;83.10;;;;;;5069440;28;20661;-71
2023/07/12 09:57:08;;;;;;;3.87;2.50;;;27.20;82.70;;;;;;5069157;28;20664;-71
2023/07/12 09:59:46;;;;;;;2.77;2.43;;;27.30;83.70;;;;;;5069127;28;20632;-71
2023/07/12 10:02:26;;;;;;;1.70;1.60;;;27.50;84.70;;;;;;5069426;28;20647;-71
2023/07/12 10:04:56;;;;;;;3.73;2.30;;;27.70;81.40;;;;;;5061826;28;20653;-71
2023/07/12 10:07:34;;;;;;;3.20;2.90;;;27.80;80.70;;;;;;5068961;28;20654;-71
2023/07/12 10:10:01;;;;;;;3.23;2.93;;;28.10;78.80;;;;;;5061754;28;21170;-71
2023/07/12 10:12:36;;;;;;;2.60;1.83;;;28.20;77.60;;;;;;5069331;28;20648;-71
2023/07/12 10:15:04;;;;;;;2.10;1.50;;;28.30;79.00;;;;;;5061470;28;20663;-71
2023/07/12 10:17:35;;;;;;;2.00;1.90;;;28.40;75.50;;;;;;5068990;28;20625;-71
2023/07/12 10:20:07;;;;;;;2.10;2.00;;;28.50;77.00;;;;;;5068332;28;20660;-71
2023/07/12 10:22:38;;;;;;;7.13;2.77;;;28.40;75.40;;;;;;5068904;28;20626;-71
2023/07/12 10:25:10;;;;;;;2.30;2.10;;;28.50;77.60;;;;;;5069205;28;20656;-71
2023/07/12 10:27:45;;;;;;;2.40;2.20;;;28.70;76.00;;;;;;5068759;28;20645;-71
2023/07/12 10:30:15;;;;;;;2.23;1.93;;;28.80;74.70;;;;;;5059424;28;20982;-71
2023/07/12 10:32:48;;;;;;;2.27;2.07;;;29.00;73.70;;;;;;5068534;28;21208;-71
2023/07/12 10:35:20;;;;;;;1.97;1.87;;;28.50;72.00;;;;;;5068562;28;21218;-71
2023/07/12 10:37:52;;;;;;;2.20;1.93;;;28.50;71.30;;;;;;5068578;28;20974;-71
2023/07/12 10:40:23;;;;;;;2.63;2.43;;;28.90;73.60;;;;;;5067964;28;20736;-70
2023/07/12 10:42:55;;;;;;;2.83;2.63;;;28.90;73.00;;;;;;5068308;28;20940;-70
2023/07/12 10:45:27;;;;;;;5.83;2.10;;;29.10;73.80;;;;;;5067773;28;20628;-71
2023/07/12 10:47:59;;;;;;;4.20;2.40;;;29.40;72.80;;;;;;5068497;28;20633;-70
2023/07/12 10:50:33;;;;;;;4.37;2.00;;;29.00;71.50;;;;;;5067858;28;20656;-71
2023/07/12 10:53:11;;;;;;;2.90;2.03;;;28.80;70.00;;;;;;5068193;28;20646;-70
2023/07/12 10:55:44;;;;;;;4.17;2.63;;;28.30;70.00;;;;;;5069130;28;20664;-72
2023/07/12 10:58:27;;;;;;;2.20;2.00;;;28.10;70.80;;;;;;5067852;28;20617;-71
2023/07/12 11:00:55;;;;;;;2.10;2.00;;;28.10;72.90;;;;;;5067638;28;20650;-71
2023/07/12 11:03:34;;;;;;;4.30;3.10;;;28.00;71.10;;;;;;5066720;28;20628;-71
2023/07/12 11:06:07;;;;;;;3.50;2.50;;;28.10;72.20;;;;;;5068521;28;20653;-71
2023/07/12 11:08:53;;;;;;;2.27;2.17;;;28.20;71.60;;;;;;5059796;28;20625;-71
2023/07/12 11:11:44;;;;;;;2.40;2.20;;;28.60;74.80;;;;;;5067960;28;20652;-71
2023/07/12 11:14:25;;;;;;;3.40;3.10;;;28.50;66.70;;;;;;5068193;28;20626;-71
2023/07/12 11:17:12;;;;;;;3.53;2.70;;;28.20;67.50;;;;;;5061514;28;20822;-71
2023/07/12 11:19:49;;;;;;;3.13;2.87;;;28.70;71.40;;;;;;5067408;28;20618;-71
2023/07/12 11:22:18;;;;;;;3.10;2.80;;;29.20;65.90;;;;;;5067430;28;20649;-71
2023/07/12 11:24:54;;;;;;;2.47;2.27;;;29.30;63.50;;;;;;5068188;28;20617;-71
2023/07/12 11:27:33;;;;;;;3.80;2.70;;;29.90;65.50;;;;;;5067843;28;20741;-71
2023/07/12 11:30:23;;;;;;;2.93;2.27;;;30.20;63.40;;;;;;5060389;28;20624;-71
2023/07/12 11:32:53;;;;;;;2.60;2.40;;;30.20;64.20;;;;;;5067251;28;20648;-71
2023/07/12 11:35:30;;;;;;;2.70;2.50;;;30.50;66.30;;;;;;5068096;28;20667;-71
2023/07/12 11:37:57;;;;;;;3.23;2.93;;;31.00;64.10;;;;;;5067852;28;20617;-71
2023/07/12 11:40:27;;;;;;;2.70;2.30;;;31.40;60.10;;;;;;5066953;28;20656;-71
2023/07/12 11:42:54;;;;;;;3.03;2.73;;;31.60;58.70;;;;;;5067709;28;20621;-71
2023/07/12 11:45:22;;;;;;;2.30;2.20;;;31.80;59.70;;;;;;5066450;28;20624;-71
2023/07/12 11:47:52;;;;;;;2.93;2.60;;;32.20;56.20;;;;;;5067528;28;20625;-71
2023/07/12 11:50:23;;;;;;;2.90;2.53;;;32.40;56.90;;;;;;5063256;28;20625;-71
2023/07/12 11:52:51;;;;;;;2.60;2.33;;;32.70;57.50;;;;;;5067675;28;20613;-71
2023/07/12 11:55:20;;;;;;;2.50;2.30;;;32.90;57.60;;;;;;5058911;28;20660;-71
2023/07/12 11:57:48;;;;;;;2.03;1.93;;;33.50;55.20;;;;;;5067151;28;20609;-71
2023/07/12 12:00:18;;;;;;;3.37;3.07;;;33.60;54.50;;;;;;5066729;28;21175;-72
2023/07/12 12:02:53;;;;;;;2.90;2.67;;;33.50;55.80;;;;;;5067555;28;20648;-72
2023/07/12 12:05:25;;;;;;;3.93;2.30;;;33.70;54.90;;;;;;5071696;28;20966;-71
2023/07/12 12:07:53;;;;;;;2.43;2.23;;;33.10;53.80;;;;;;5071569;28;20663;-71
2023/07/12 12:10:22;;;;;;;2.13;1.93;;;32.00;54.50;;;;;;5070146;28;20625;-72
2023/07/12 12:12:51;;;;;;;2.50;2.30;;;31.60;57.90;;;;;;5071532;28;20617;-71
2023/07/12 12:15:20;;;;;;;2.70;2.50;;;31.90;56.60;;;;;;5069466;28;20664;-71
2023/07/12 12:17:47;;;;;;;2.70;2.60;;;32.60;57.40;;;;;;5071674;28;20973;-71
2023/07/12 12:20:17;;;;;;;2.90;2.70;;;33.60;56.00;;;;;;5070891;28;20621;-71
2023/07/12 12:22:53;;;;;;;2.27;2.07;;;33.50;53.80;;;;;;5070855;28;20628;-71
2023/07/12 12:25:22;;;;;;;2.60;2.40;;;32.70;54.10;;;;;;5071300;28;20620;-71
2023/07/12 12:27:49;;;;;;;2.77;2.30;;;31.60;54.70;;;;;;5070979;28;20626;-70
2023/07/12 12:30:23;;;;;;;2.67;2.37;;;32.20;56.20;;;;;;5071154;28;20732;-70
2023/07/12 12:33:01;;;;;;;2.93;2.67;;;33.40;55.30;;;;;;5070724;28;21170;-72
2023/07/12 12:35:28;;;;;;;2.43;2.30;;;33.90;52.20;;;;;;5071206;28;20763;-71
2023/07/12 12:37:58;;;;;;;2.60;2.40;;;35.20;55.30;;;;;;5070683;28;21187;-71
2023/07/12 12:40:25;;;;;;;2.73;2.53;;;34.90;47.80;;;;;;5070524;28;20649;-71
2023/07/12 12:42:59;;;;;;;2.40;2.20;;;35.50;51.60;;;;;;5070651;28;20628;-71
2023/07/12 12:45:30;;;;;;;3.37;2.67;;;35.50;50.90;;;;;;5070332;28;21259;-71
2023/07/12 12:47:57;;;;;;;2.43;2.20;;;36.10;47.50;;;;;;5070320;28;20654;-71
2023/07/12 12:50:24;;;;;;;2.23;2.13;;;36.50;48.10;;;;;;5070389;28;20651;-71
2023/07/12 12:52:51;;;;;;;2.87;2.50;;;37.20;47.40;;;;;;5070650;28;20981;-71
2023/07/12 12:55:19;;;;;;;2.77;2.57;;;37.40;45.40;;;;;;5062517;28;20565;-71
2023/07/12 12:57:46;;;;;;;1.63;1.57;;;37.80;45.80;;;;;;5070327;28;20213;-70